sensor_id;sensor_type;location;lat;lon;timestamp;pressure;altitude;pressure_sealevel;temperature;humidity
65546;BME280;52177;55.968;37.498;2023-04-20T00:00:26;100471.47;;;4.85;56.63
65546;BME280;52177;55.968;37.498;2023-04-20T00:00:56;100464.47;;;4.84;56.71
65546;BME280;52177;55.968;37.498;2023-04-20T00:01:27;100463.75;;;4.82;56.81
65546;BME280;52177;55.968;37.498;2023-04-20T00:01:57;100472.75;;;4.79;57.12
65546;BME280;52177;55.968;37.498;2023-04-20T00:02:31;100463.44;;;4.75;57.07
65546;BME280;52177;55.968;37.498;2023-04-20T00:03:02;100471.47;;;4.74;57.18
65546;BME280;52177;55.968;37.498;2023-04-20T00:03:32;100471.47;;;4.74;57.14
65546;BME280;52177;55.968;37.498;2023-04-20T00:04:04;100471.56;;;4.72;57.05
65546;BME280;52177;55.968;37.498;2023-04-20T00:04:34;100464.47;;;4.73;56.86
65546;BME280;52177;55.968;37.498;2023-04-20T00:05:06;100468.94;;;4.72;56.89
65546;BME280;52177;55.968;37.498;2023-04-20T00:05:36;100473.38;;;4.72;57.11
65546;BME280;52177;55.968;37.498;2023-04-20T00:06:07;100478.53;;;4.73;57.26
65546;BME280;52177;55.968;37.498;2023-04-20T00:06:38;100468.09;;;4.72;57.41
65546;BME280;52177;55.968;37.498;2023-04-20T00:07:08;100473.25;;;4.73;57.26
65546;BME280;52177;55.968;37.498;2023-04-20T00:07:39;100471.56;;;4.72;57.20
65546;BME280;52177;55.968;37.498;2023-04-20T00:08:10;100475.03;;;4.73;57.43
65546;BME280;52177;55.968;37.498;2023-04-20T00:08:41;100469.75;;;4.73;57.52
65546;BME280;52177;55.968;37.498;2023-04-20T00:09:12;100474.09;;;4.74;57.16
65546;BME280;52177;55.968;37.498;2023-04-20T00:09:44;100464.25;;;4.76;57.35
65546;BME280;52177;55.968;37.498;2023-04-20T00:10:14;100466.91;;;4.76;57.83
65546;BME280;52177;55.968;37.498;2023-04-20T00:10:45;100471.34;;;4.75;57.85
65546;BME280;52177;55.968;37.498;2023-04-20T00:11:15;100471.34;;;4.75;57.51
65546;BME280;52177;55.968;37.498;2023-04-20T00:11:45;100467.00;;;4.74;57.39
65546;BME280;52177;55.968;37.498;2023-04-20T00:12:16;100471.34;;;4.75;57.38
65546;BME280;52177;55.968;37.498;2023-04-20T00:12:46;100471.47;;;4.74;57.38
65546;BME280;52177;55.968;37.498;2023-04-20T00:13:16;100466.28;;;4.72;57.58
65546;BME280;52177;55.968;37.498;2023-04-20T00:13:47;100465.44;;;4.72;57.62
65546;BME280;52177;55.968;37.498;2023-04-20T00:14:18;100470.72;;;4.72;57.55
65546;BME280;52177;55.968;37.498;2023-04-20T00:14:48;100462.09;;;4.70;57.68
65546;BME280;52177;55.968;37.498;2023-04-20T00:15:19;100463.78;;;4.71;57.64
65546;BME280;52177;55.968;37.498;2023-04-20T00:15:49;100461.84;;;4.73;57.44
65546;BME280;52177;55.968;37.498;2023-04-20T00:16:20;100464.47;;;4.73;57.42
65546;BME280;52177;55.968;37.498;2023-04-20T00:16:50;100469.75;;;4.73;57.81
65546;BME280;52177;55.968;37.498;2023-04-20T00:17:20;100467.97;;;4.73;57.82
65546;BME280;52177;55.968;37.498;2023-04-20T00:17:51;100469.75;;;4.73;57.91
65546;BME280;52177;55.968;37.498;2023-04-20T00:18:22;100468.09;;;4.72;57.67
65546;BME280;52177;55.968;37.498;2023-04-20T00:18:52;100462.91;;;4.70;57.67
65546;BME280;52177;55.968;37.498;2023-04-20T00:19:23;100464.72;;;4.70;57.77
65546;BME280;52177;55.968;37.498;2023-04-20T00:19:56;100461.25;;;4.69;57.66
65546;BME280;52177;55.968;37.498;2023-04-20T00:20:26;100468.34;;;4.69;57.65
65546;BME280;52177;55.968;37.498;2023-04-20T00:20:58;100469.19;;;4.69;57.63
65546;BME280;52177;55.968;37.498;2023-04-20T00:21:28;100468.34;;;4.69;57.80
65546;BME280;52177;55.968;37.498;2023-04-20T00:21:59;100467.63;;;4.67;57.86
65546;BME280;52177;55.968;37.498;2023-04-20T00:22:30;100463.41;;;4.64;58.07
65546;BME280;52177;55.968;37.498;2023-04-20T00:23:00;100464.50;;;4.61;58.11
65546;BME280;52177;55.968;37.498;2023-04-20T00:23:31;100456.78;;;4.58;58.16
65546;BME280;52177;55.968;37.498;2023-04-20T00:24:01;100462.22;;;4.57;58.32
65546;BME280;52177;55.968;37.498;2023-04-20T00:24:31;100467.50;;;4.57;58.22
65546;BME280;52177;55.968;37.498;2023-04-20T00:25:02;100464.13;;;4.55;57.99
65546;BME280;52177;55.968;37.498;2023-04-20T00:25:32;100460.41;;;4.57;57.92
65546;BME280;52177;55.968;37.498;2023-04-20T00:26:02;100462.22;;;4.57;57.89
65546;BME280;52177;55.968;37.498;2023-04-20T00:26:33;100462.94;;;4.59;57.88
65546;BME280;52177;55.968;37.498;2023-04-20T00:27:03;100459.31;;;4.60;57.74
65546;BME280;52177;55.968;37.498;2023-04-20T00:27:34;100462.69;;;4.62;57.71
65546;BME280;52177;55.968;37.498;2023-04-20T00:28:04;100462.69;;;4.62;57.90
65546;BME280;52177;55.968;37.498;2023-04-20T00:28:35;100461.00;;;4.61;57.62
65546;BME280;52177;55.968;37.498;2023-04-20T00:29:05;100460.16;;;4.60;57.75
65546;BME280;52177;55.968;37.498;2023-04-20T00:29:35;100461.84;;;4.61;57.74
65546;BME280;52177;55.968;37.498;2023-04-20T00:30:06;100459.91;;;4.63;57.82
65546;BME280;52177;55.968;37.498;2023-04-20T00:30:37;100461.59;;;4.64;57.98
65546;BME280;52177;55.968;37.498;2023-04-20T00:31:08;100465.19;;;4.63;57.95
65546;BME280;52177;55.968;37.498;2023-04-20T00:31:38;100465.19;;;4.63;58.10
65546;BME280;52177;55.968;37.498;2023-04-20T00:32:08;100465.19;;;4.63;58.28
65546;BME280;52177;55.968;37.498;2023-04-20T00:32:39;100468.81;;;4.62;58.42
65546;BME280;52177;55.968;37.498;2023-04-20T00:33:09;100462.81;;;4.60;58.20
65546;BME280;52177;55.968;37.498;2023-04-20T00:33:40;100462.81;;;4.60;58.12
65546;BME280;52177;55.968;37.498;2023-04-20T00:34:10;100462.06;;;4.58;58.16
65546;BME280;52177;55.968;37.498;2023-04-20T00:34:40;100459.56;;;4.57;58.27
65546;BME280;52177;55.968;37.498;2023-04-20T00:35:11;100468.31;;;4.57;58.43
65546;BME280;52177;55.968;37.498;2023-04-20T00:35:41;100463.28;;;4.54;58.38
65546;BME280;52177;55.968;37.498;2023-04-20T00:36:11;100468.56;;;4.54;58.35
65546;BME280;52177;55.968;37.498;2023-04-20T00:36:42;100469.41;;;4.55;58.15
65546;BME280;52177;55.968;37.498;2023-04-20T00:37:12;100468.78;;;4.51;58.43
65546;BME280;52177;55.968;37.498;2023-04-20T00:37:43;100461.84;;;4.50;58.66
65546;BME280;52177;55.968;37.498;2023-04-20T00:38:13;100461.13;;;4.48;58.57
65546;BME280;52177;55.968;37.498;2023-04-20T00:38:43;100462.31;;;4.44;58.61
65546;BME280;52177;55.968;37.498;2023-04-20T00:39:14;100470.13;;;4.46;58.72
65546;BME280;52177;55.968;37.498;2023-04-20T00:39:45;100462.31;;;4.44;58.62
65546;BME280;52177;55.968;37.498;2023-04-20T00:40:15;100462.44;;;4.42;58.40
65546;BME280;52177;55.968;37.498;2023-04-20T00:40:46;100461.47;;;4.43;58.39
65546;BME280;52177;55.968;37.498;2023-04-20T00:41:22;100461.38;;;4.45;58.69
65546;BME280;52177;55.968;37.498;2023-04-20T00:41:52;100455.94;;;4.47;58.69
65546;BME280;52177;55.968;37.498;2023-04-20T00:42:22;100458.59;;;4.47;58.71
65546;BME280;52177;55.968;37.498;2023-04-20T00:42:53;100459.41;;;4.47;58.75
65546;BME280;52177;55.968;37.498;2023-04-20T00:43:23;100459.56;;;4.46;58.70
65546;BME280;52177;55.968;37.498;2023-04-20T00:43:54;100454.38;;;4.44;59.01
65546;BME280;52177;55.968;37.498;2023-04-20T00:44:24;100457.03;;;4.44;59.01
65546;BME280;52177;55.968;37.498;2023-04-20T00:44:55;100452.56;;;4.44;58.97
65546;BME280;52177;55.968;37.498;2023-04-20T00:45:25;100457.03;;;4.44;58.81
65546;BME280;52177;55.968;37.498;2023-04-20T00:45:55;100465.78;;;4.44;58.92
65546;BME280;52177;55.968;37.498;2023-04-20T00:46:26;100447.53;;;4.41;58.98
65546;BME280;52177;55.968;37.498;2023-04-20T00:46:56;100454.88;;;4.38;59.08
65546;BME280;52177;55.968;37.498;2023-04-20T00:47:26;100455.81;;;4.37;59.25
65546;BME280;52177;55.968;37.498;2023-04-20T00:47:57;100455.09;;;4.35;59.33
65546;BME280;52177;55.968;37.498;2023-04-20T00:48:27;100452.59;;;4.33;59.42
65546;BME280;52177;55.968;37.498;2023-04-20T00:48:58;100455.34;;;4.32;59.17
65546;BME280;52177;55.968;37.498;2023-04-20T00:49:29;100451.97;;;4.30;59.24
65546;BME280;52177;55.968;37.498;2023-04-20T00:50:00;100452.94;;;4.29;59.50
65546;BME280;52177;55.968;37.498;2023-04-20T00:50:32;100447.88;;;4.26;59.51
65546;BME280;52177;55.968;37.498;2023-04-20T00:51:03;100447.03;;;4.25;59.46
65546;BME280;52177;55.968;37.498;2023-04-20T00:51:34;100441.88;;;4.23;59.21
65546;BME280;52177;55.968;37.498;2023-04-20T00:52:04;100448.97;;;4.23;59.33
65546;BME280;52177;55.968;37.498;2023-04-20T00:52:35;100445.47;;;4.22;59.53
65546;BME280;52177;55.968;37.498;2023-04-20T00:53:06;100453.50;;;4.21;59.65
65546;BME280;52177;55.968;37.498;2023-04-20T00:53:37;100448.22;;;4.21;59.34
65546;BME280;52177;55.968;37.498;2023-04-20T00:54:07;100446.44;;;4.21;59.34
65546;BME280;52177;55.968;37.498;2023-04-20T00:54:38;100444.50;;;4.23;59.12
65546;BME280;52177;55.968;37.498;2023-04-20T00:55:09;100442.72;;;4.24;59.01
65546;BME280;52177;55.968;37.498;2023-04-20T00:55:42;100447.03;;;4.25;58.99
65546;BME280;52177;55.968;37.498;2023-04-20T00:56:13;100439.84;;;4.27;58.90
65546;BME280;52177;55.968;37.498;2023-04-20T00:56:44;100447.78;;;4.27;58.75
65546;BME280;52177;55.968;37.498;2023-04-20T00:57:17;100439.84;;;4.27;58.80
65546;BME280;52177;55.968;37.498;2023-04-20T00:57:48;100445.97;;;4.28;59.28
65546;BME280;52177;55.968;37.498;2023-04-20T00:58:19;100438.88;;;4.28;59.08
65546;BME280;52177;55.968;37.498;2023-04-20T00:58:49;100434.56;;;4.27;58.77
65546;BME280;52177;55.968;37.498;2023-04-20T00:59:20;100438.03;;;4.28;58.76
65546;BME280;52177;55.968;37.498;2023-04-20T00:59:51;100442.50;;;4.27;58.98
65546;BME280;52177;55.968;37.498;2023-04-20T01:00:21;100441.66;;;4.27;58.84
65546;BME280;52177;55.968;37.498;2023-04-20T01:00:51;100439.84;;;4.27;58.95
65546;BME280;52177;55.968;37.498;2023-04-20T01:01:22;100437.31;;;4.26;58.83
65546;BME280;52177;55.968;37.498;2023-04-20T01:01:53;100440.69;;;4.28;58.89
65546;BME280;52177;55.968;37.498;2023-04-20T01:02:23;100438.19;;;4.26;58.66
65546;BME280;52177;55.968;37.498;2023-04-20T01:02:53;100431.09;;;4.27;58.76
65546;BME280;52177;55.968;37.498;2023-04-20T01:03:24;100431.22;;;4.25;58.52
65546;BME280;52177;55.968;37.498;2023-04-20T01:03:54;100433.00;;;4.25;58.78
65546;BME280;52177;55.968;37.498;2023-04-20T01:04:25;100433.00;;;4.25;58.79
65546;BME280;52177;55.968;37.498;2023-04-20T01:04:55;100436.59;;;4.23;58.78
65546;BME280;52177;55.968;37.498;2023-04-20T01:05:26;100434.94;;;4.22;59.22
65546;BME280;52177;55.968;37.498;2023-04-20T01:05:56;100436.84;;;4.20;59.19
65546;BME280;52177;55.968;37.498;2023-04-20T01:06:27;100431.66;;;4.19;59.29
65546;BME280;52177;55.968;37.498;2023-04-20T01:06:57;100438.75;;;4.18;59.27
65546;BME280;52177;55.968;37.498;2023-04-20T01:07:27;100437.19;;;4.16;59.22
65546;BME280;52177;55.968;37.498;2023-04-20T01:07:59;100432.88;;;4.15;59.33
65546;BME280;52177;55.968;37.498;2023-04-20T01:08:29;100439.94;;;4.14;59.49
65546;BME280;52177;55.968;37.498;2023-04-20T01:09:00;100432.88;;;4.15;59.46
65546;BME280;52177;55.968;37.498;2023-04-20T01:09:30;100433.72;;;4.15;59.27
65546;BME280;52177;55.968;37.498;2023-04-20T01:10:01;100432.75;;;4.16;59.23
65546;BME280;52177;55.968;37.498;2023-04-20T01:10:31;100429.28;;;4.16;59.21
65546;BME280;52177;55.968;37.498;2023-04-20T01:11:02;100436.34;;;4.15;59.44
65546;BME280;52177;55.968;37.498;2023-04-20T01:11:32;100432.88;;;4.15;59.26
65546;BME280;52177;55.968;37.498;2023-04-20T01:12:03;100431.06;;;4.15;59.46
65546;BME280;52177;55.968;37.498;2023-04-20T01:12:33;100436.47;;;4.14;59.57
65546;BME280;52177;55.968;37.498;2023-04-20T01:13:04;100429.63;;;4.11;59.88
65546;BME280;52177;55.968;37.498;2023-04-20T01:13:34;100435.72;;;4.12;59.82
65546;BME280;52177;55.968;37.498;2023-04-20T01:14:07;100432.41;;;4.10;59.56
65546;BME280;52177;55.968;37.498;2023-04-20T01:14:37;100427.22;;;4.08;59.79
65546;BME280;52177;55.968;37.498;2023-04-20T01:15:08;100431.53;;;4.09;59.87
65546;BME280;52177;55.968;37.498;2023-04-20T01:15:39;100433.44;;;4.07;59.99
65546;BME280;52177;55.968;37.498;2023-04-20T01:16:10;100429.13;;;4.06;59.95
65546;BME280;52177;55.968;37.498;2023-04-20T01:16:40;100430.09;;;4.05;60.05
65546;BME280;52177;55.968;37.498;2023-04-20T01:17:11;100430.94;;;4.06;60.05
65546;BME280;52177;55.968;37.498;2023-04-20T01:17:44;100432.59;;;4.07;60.07
65546;BME280;52177;55.968;37.498;2023-04-20T01:18:15;100422.88;;;4.07;60.03
65546;BME280;52177;55.968;37.498;2023-04-20T01:18:49;100432.50;;;4.08;60.07
65546;BME280;52177;55.968;37.498;2023-04-20T01:19:20;100427.22;;;4.08;60.18
65546;BME280;52177;55.968;37.498;2023-04-20T01:19:50;100427.22;;;4.08;60.01
65546;BME280;52177;55.968;37.498;2023-04-20T01:20:21;100428.91;;;4.09;60.07
65546;BME280;52177;55.968;37.498;2023-04-20T01:20:52;100434.16;;;4.09;60.11
65546;BME280;52177;55.968;37.498;2023-04-20T01:21:23;100424.59;;;4.08;60.39
65546;BME280;52177;55.968;37.498;2023-04-20T01:21:53;100427.22;;;4.08;60.46
65546;BME280;52177;55.968;37.498;2023-04-20T01:22:23;100424.59;;;4.08;60.51
65546;BME280;52177;55.968;37.498;2023-04-20T01:22:54;100425.44;;;4.09;60.40
65546;BME280;52177;55.968;37.498;2023-04-20T01:23:24;100431.66;;;4.08;60.52
65546;BME280;52177;55.968;37.498;2023-04-20T01:23:54;100422.06;;;4.07;60.72
65546;BME280;52177;55.968;37.498;2023-04-20T01:24:25;100424.84;;;4.05;60.70
65546;BME280;52177;55.968;37.498;2023-04-20T01:24:55;100426.75;;;4.03;60.66
65546;BME280;52177;55.968;37.498;2023-04-20T01:25:25;100426.84;;;4.01;61.01
65546;BME280;52177;55.968;37.498;2023-04-20T01:25:56;100420.13;;;3.97;61.01
65546;BME280;52177;55.968;37.498;2023-04-20T01:26:26;100430.06;;;3.94;61.22
65546;BME280;52177;55.968;37.498;2023-04-20T01:26:56;100431.16;;;3.91;61.47
65546;BME280;52177;55.968;37.498;2023-04-20T01:27:27;100419.03;;;3.89;61.22
65546;BME280;52177;55.968;37.498;2023-04-20T01:27:57;100425.25;;;3.88;61.32
65546;BME280;52177;55.968;37.498;2023-04-20T01:28:28;100419.97;;;3.88;61.61
65546;BME280;52177;55.968;37.498;2023-04-20T01:28:58;100428.13;;;3.85;61.58
65546;BME280;52177;55.968;37.498;2023-04-20T01:29:28;100419.50;;;3.83;61.66
65546;BME280;52177;55.968;37.498;2023-04-20T01:30:02;100423.06;;;3.81;61.60
65546;BME280;52177;55.968;37.498;2023-04-20T01:30:35;100417.78;;;3.81;61.70
65546;BME280;52177;55.968;37.498;2023-04-20T01:31:07;100421.28;;;3.82;61.53
65546;BME280;52177;55.968;37.498;2023-04-20T01:31:38;100417.78;;;3.81;61.55
65546;BME280;52177;55.968;37.498;2023-04-20T01:32:09;100420.31;;;3.83;61.68
65546;BME280;52177;55.968;37.498;2023-04-20T01:32:40;100417.56;;;3.85;61.26
65546;BME280;52177;55.968;37.498;2023-04-20T01:33:10;100420.31;;;3.83;61.46
65546;BME280;52177;55.968;37.498;2023-04-20T01:33:40;100423.94;;;3.82;61.44
65546;BME280;52177;55.968;37.498;2023-04-20T01:34:11;100416.94;;;3.81;61.36
65546;BME280;52177;55.968;37.498;2023-04-20T01:34:41;100418.66;;;3.82;61.40
65546;BME280;52177;55.968;37.498;2023-04-20T01:35:12;100417.78;;;3.81;61.44
65546;BME280;52177;55.968;37.498;2023-04-20T01:35:42;100416.00;;;3.82;61.42
65546;BME280;52177;55.968;37.498;2023-04-20T01:36:13;100413.25;;;3.84;61.33
65546;BME280;52177;55.968;37.498;2023-04-20T01:36:44;100415.88;;;3.84;61.33
65546;BME280;52177;55.968;37.498;2023-04-20T01:37:14;100417.78;;;3.81;61.47
65546;BME280;52177;55.968;37.498;2023-04-20T01:37:45;100421.41;;;3.80;61.23
65546;BME280;52177;55.968;37.498;2023-04-20T01:38:19;100415.28;;;3.80;60.92
65546;BME280;52177;55.968;37.498;2023-04-20T01:38:50;100414.56;;;3.78;60.91
65546;BME280;52177;55.968;37.498;2023-04-20T01:39:21;100414.44;;;3.79;61.00
65546;BME280;52177;55.968;37.498;2023-04-20T01:39:51;100419.00;;;3.77;61.16
65546;BME280;52177;55.968;37.498;2023-04-20T01:40:22;100409.53;;;3.75;61.12
65546;BME280;52177;55.968;37.498;2023-04-20T01:40:53;100417.53;;;3.73;60.94
65546;BME280;52177;55.968;37.498;2023-04-20T01:41:23;100420.19;;;3.73;61.03
65546;BME280;52177;55.968;37.498;2023-04-20T01:41:54;100421.16;;;3.72;60.78
65546;BME280;52177;55.968;37.498;2023-04-20T01:42:25;100413.22;;;3.72;60.65
65546;BME280;52177;55.968;37.498;2023-04-20T01:42:55;100416.81;;;3.71;60.87
65546;BME280;52177;55.968;37.498;2023-04-20T01:43:26;100418.59;;;3.71;61.14
65546;BME280;52177;55.968;37.498;2023-04-20T01:43:56;100414.28;;;3.70;60.97
65546;BME280;52177;55.968;37.498;2023-04-20T01:44:27;100410.81;;;3.69;60.92
65546;BME280;52177;55.968;37.498;2023-04-20T01:44:57;100409.25;;;3.67;61.19
65546;BME280;52177;55.968;37.498;2023-04-20T01:45:27;100411.97;;;3.65;61.04
65546;BME280;52177;55.968;37.498;2023-04-20T01:45:58;100417.25;;;3.65;60.88
65546;BME280;52177;55.968;37.498;2023-04-20T01:46:29;100412.94;;;3.64;60.96
65546;BME280;52177;55.968;37.498;2023-04-20T01:46:59;100410.41;;;3.63;61.31
65546;BME280;52177;55.968;37.498;2023-04-20T01:47:31;100417.63;;;3.61;61.07
65546;BME280;52177;55.968;37.498;2023-04-20T01:48:01;100416.03;;;3.58;61.24
65546;BME280;52177;55.968;37.498;2023-04-20T01:48:32;100415.19;;;3.57;61.39
65546;BME280;52177;55.968;37.498;2023-04-20T01:49:03;100412.78;;;3.54;61.10
65546;BME280;52177;55.968;37.498;2023-04-20T01:49:33;100414.69;;;3.52;61.44
65546;BME280;52177;55.968;37.498;2023-04-20T01:50:04;100414.69;;;3.52;61.28
65546;BME280;52177;55.968;37.498;2023-04-20T01:50:34;100412.91;;;3.53;61.29
65546;BME280;52177;55.968;37.498;2023-04-20T01:51:04;100406.78;;;3.52;61.27
65546;BME280;52177;55.968;37.498;2023-04-20T01:51:35;100414.47;;;3.55;61.20
65546;BME280;52177;55.968;37.498;2023-04-20T01:52:06;100414.59;;;3.54;61.14
65546;BME280;52177;55.968;37.498;2023-04-20T01:52:37;100411.00;;;3.55;61.24
65546;BME280;52177;55.968;37.498;2023-04-20T01:53:07;100413.75;;;3.53;61.23
65546;BME280;52177;55.968;37.498;2023-04-20T01:53:38;100412.91;;;3.53;61.40
65546;BME280;52177;55.968;37.498;2023-04-20T01:54:08;100409.34;;;3.54;61.39
65546;BME280;52177;55.968;37.498;2023-04-20T01:54:38;100407.63;;;3.53;61.36
65546;BME280;52177;55.968;37.498;2023-04-20T01:55:09;100409.44;;;3.52;61.22
65546;BME280;52177;55.968;37.498;2023-04-20T01:55:40;100416.59;;;3.50;61.17
65546;BME280;52177;55.968;37.498;2023-04-20T01:56:11;100406.16;;;3.49;61.33
65546;BME280;52177;55.968;37.498;2023-04-20T01:56:41;100408.09;;;3.47;61.29
65546;BME280;52177;55.968;37.498;2023-04-20T01:57:12;100410.84;;;3.45;61.28
65546;BME280;52177;55.968;37.498;2023-04-20T01:57:42;100417.06;;;3.44;61.51
65546;BME280;52177;55.968;37.498;2023-04-20T01:58:13;100411.06;;;3.42;61.58
65546;BME280;52177;55.968;37.498;2023-04-20T01:58:44;100403.28;;;3.41;61.45
65546;BME280;52177;55.968;37.498;2023-04-20T01:59:14;100408.44;;;3.42;61.45
65546;BME280;52177;55.968;37.498;2023-04-20T01:59:45;100408.44;;;3.42;61.52
65546;BME280;52177;55.968;37.498;2023-04-20T02:00:15;100404.94;;;3.42;61.44
65546;BME280;52177;55.968;37.498;2023-04-20T02:00:46;100413.81;;;3.41;61.12
65546;BME280;52177;55.968;37.498;2023-04-20T02:01:16;100405.06;;;3.40;61.40
65546;BME280;52177;55.968;37.498;2023-04-20T02:01:47;100403.28;;;3.41;61.32
65546;BME280;52177;55.968;37.498;2023-04-20T02:02:17;100409.63;;;3.38;61.57
65546;BME280;52177;55.968;37.498;2023-04-20T02:02:47;100411.50;;;3.36;61.49
65546;BME280;52177;55.968;37.498;2023-04-20T02:03:18;100405.50;;;3.34;61.48
65546;BME280;52177;55.968;37.498;2023-04-20T02:03:48;100408.38;;;3.31;61.84
65546;BME280;52177;55.968;37.498;2023-04-20T02:04:19;100403.34;;;3.28;61.87
65546;BME280;52177;55.968;37.498;2023-04-20T02:04:50;100404.19;;;3.28;62.14
65546;BME280;52177;55.968;37.498;2023-04-20T02:05:22;100411.94;;;3.30;61.96
65546;BME280;52177;55.968;37.498;2023-04-20T02:05:52;100412.81;;;3.30;62.12
65546;BME280;52177;55.968;37.498;2023-04-20T02:06:23;100409.31;;;3.30;61.80
65546;BME280;52177;55.968;37.498;2023-04-20T02:06:53;100408.47;;;3.29;61.97
65546;BME280;52177;55.968;37.498;2023-04-20T02:07:23;100409.56;;;3.27;62.07
65546;BME280;52177;55.968;37.498;2023-04-20T02:07:54;100409.56;;;3.27;61.96
65546;BME280;52177;55.968;37.498;2023-04-20T02:08:24;100408.72;;;3.26;61.99
65546;BME280;52177;55.968;37.498;2023-04-20T02:08:54;100412.28;;;3.25;61.93
65546;BME280;52177;55.968;37.498;2023-04-20T02:09:25;100409.66;;;3.25;62.07
65546;BME280;52177;55.968;37.498;2023-04-20T02:09:55;100414.91;;;3.25;61.89
65546;BME280;52177;55.968;37.498;2023-04-20T02:10:25;100404.38;;;3.25;62.02
65546;BME280;52177;55.968;37.498;2023-04-20T02:10:56;100409.56;;;3.27;62.07
65546;BME280;52177;55.968;37.498;2023-04-20T02:11:26;100405.25;;;3.26;62.00
65546;BME280;52177;55.968;37.498;2023-04-20T02:11:56;100406.09;;;3.26;62.03
65546;BME280;52177;55.968;37.498;2023-04-20T02:12:27;100405.25;;;3.26;61.99
65546;BME280;52177;55.968;37.498;2023-04-20T02:12:57;100404.19;;;3.28;61.97
65546;BME280;52177;55.968;37.498;2023-04-20T02:13:27;100403.22;;;3.29;62.01
65546;BME280;52177;55.968;37.498;2023-04-20T02:13:58;100404.06;;;3.30;61.98
65546;BME280;52177;55.968;37.498;2023-04-20T02:14:28;100403.22;;;3.29;61.94
65546;BME280;52177;55.968;37.498;2023-04-20T02:14:58;100409.31;;;3.30;61.75
65546;BME280;52177;55.968;37.498;2023-04-20T02:15:29;100401.41;;;3.30;61.70
65546;BME280;52177;55.968;37.498;2023-04-20T02:15:59;100408.38;;;3.31;61.58
65546;BME280;52177;55.968;37.498;2023-04-20T02:16:30;100404.19;;;3.28;61.45
65546;BME280;52177;55.968;37.498;2023-04-20T02:17:00;100401.41;;;3.30;61.58
65546;BME280;52177;55.968;37.498;2023-04-20T02:17:31;100399.50;;;3.32;61.58
65546;BME280;52177;55.968;37.498;2023-04-20T02:18:02;100402.16;;;3.32;61.70
65546;BME280;52177;55.968;37.498;2023-04-20T02:18:32;100405.75;;;3.31;61.57
65546;BME280;52177;55.968;37.498;2023-04-20T02:19:03;100401.31;;;3.31;61.64
65546;BME280;52177;55.968;37.498;2023-04-20T02:19:33;100403.22;;;3.29;61.67
65546;BME280;52177;55.968;37.498;2023-04-20T02:20:04;100396.16;;;3.30;61.75
65546;BME280;52177;55.968;37.498;2023-04-20T02:20:44;100409.22;;;3.31;61.82
65546;BME280;52177;55.968;37.498;2023-04-20T02:21:15;100401.31;;;3.31;61.92
65546;BME280;52177;55.968;37.498;2023-04-20T02:21:45;100403.13;;;3.31;62.01
65546;BME280;52177;55.968;37.498;2023-04-20T02:22:16;100403.22;;;3.29;61.81
65546;BME280;52177;55.968;37.498;2023-04-20T02:22:46;100400.59;;;3.29;61.60
65546;BME280;52177;55.968;37.498;2023-04-20T02:23:16;100402.38;;;3.29;61.36
65546;BME280;52177;55.968;37.498;2023-04-20T02:23:47;100400.59;;;3.29;61.55
65546;BME280;52177;55.968;37.498;2023-04-20T02:24:17;100398.78;;;3.30;61.60
65546;BME280;52177;55.968;37.498;2023-04-20T02:24:47;100396.16;;;3.30;61.68
65546;BME280;52177;55.968;37.498;2023-04-20T02:25:18;100404.06;;;3.30;61.56
65546;BME280;52177;55.968;37.498;2023-04-20T02:25:48;100395.31;;;3.29;61.68
65546;BME280;52177;55.968;37.498;2023-04-20T02:26:18;100398.06;;;3.28;61.63
65546;BME280;52177;55.968;37.498;2023-04-20T02:26:49;100389.31;;;3.27;61.55
65546;BME280;52177;55.968;37.498;2023-04-20T02:27:19;100402.38;;;3.29;61.54
65546;BME280;52177;55.968;37.498;2023-04-20T02:27:49;100395.44;;;3.28;61.64
65546;BME280;52177;55.968;37.498;2023-04-20T02:28:20;100401.66;;;3.27;61.71
65546;BME280;52177;55.968;37.498;2023-04-20T02:28:50;100399.84;;;3.27;61.84
65546;BME280;52177;55.968;37.498;2023-04-20T02:29:21;100403.56;;;3.25;61.79
65546;BME280;52177;55.968;37.498;2023-04-20T02:29:51;100400.09;;;3.24;61.58
65546;BME280;52177;55.968;37.498;2023-04-20T02:30:21;100388.72;;;3.24;61.87
65546;BME280;52177;55.968;37.498;2023-04-20T02:30:52;100391.34;;;3.24;61.85
65546;BME280;52177;55.968;37.498;2023-04-20T02:31:22;100397.44;;;3.24;61.90
65546;BME280;52177;55.968;37.498;2023-04-20T02:31:52;100392.41;;;3.21;61.64
65546;BME280;52177;55.968;37.498;2023-04-20T02:32:23;100396.81;;;3.21;61.74
65546;BME280;52177;55.968;37.498;2023-04-20T02:32:53;100402.22;;;3.19;61.99
65546;BME280;52177;55.968;37.498;2023-04-20T02:33:23;100397.78;;;3.20;61.91
65546;BME280;52177;55.968;37.498;2023-04-20T02:33:54;100396.94;;;3.19;61.83
65546;BME280;52177;55.968;37.498;2023-04-20T02:34:24;100393.34;;;3.20;61.86
65546;BME280;52177;55.968;37.498;2023-04-20T02:34:55;100396.81;;;3.21;61.84
65546;BME280;52177;55.968;37.498;2023-04-20T02:35:25;100394.91;;;3.23;61.91
65546;BME280;52177;55.968;37.498;2023-04-20T02:35:55;100401.16;;;3.22;61.72
65546;BME280;52177;55.968;37.498;2023-04-20T02:36:26;100395.88;;;3.22;61.69
65546;BME280;52177;55.968;37.498;2023-04-20T02:36:57;100393.16;;;3.23;61.33
65546;BME280;52177;55.968;37.498;2023-04-20T02:37:27;100399.13;;;3.25;61.50
65546;BME280;52177;55.968;37.498;2023-04-20T02:37:58;100394.72;;;3.26;61.50
65546;BME280;52177;55.968;37.498;2023-04-20T02:38:28;100396.47;;;3.25;61.36
65546;BME280;52177;55.968;37.498;2023-04-20T02:38:59;100396.38;;;3.27;61.46
65546;BME280;52177;55.968;37.498;2023-04-20T02:39:29;100395.44;;;3.28;61.48
65546;BME280;52177;55.968;37.498;2023-04-20T02:39:59;100391.94;;;3.27;61.46
65546;BME280;52177;55.968;37.498;2023-04-20T02:40:30;100403.34;;;3.28;61.42